createdAt,value
2019-02-09T00:00:22.690Z,8.09
2019-02-09T00:01:22.869Z,8.01
2019-02-09T00:02:23.035Z,8.16
2019-02-09T00:03:23.221Z,8.10
2019-02-09T00:04:23.380Z,8.12
2019-02-09T00:05:23.553Z,8.09
2019-02-09T00:06:23.732Z,8.13
2019-02-09T00:07:23.903Z,8.12
2019-02-09T00:08:24.071Z,8.10
2019-02-09T00:09:24.247Z,8.18
2019-02-09T00:10:24.454Z,8.16
2019-02-09T00:11:24.588Z,8.16
2019-02-09T00:12:24.758Z,8.28
2019-02-09T00:13:24.940Z,8.15
2019-02-09T00:14:25.103Z,8.23
2019-02-09T00:15:25.291Z,8.19
2019-02-09T00:16:25.446Z,8.36
2019-02-09T00:17:25.606Z,8.23
2019-02-09T00:18:25.778Z,8.31
2019-02-09T00:19:25.952Z,8.18
2019-02-09T00:20:26.125Z,8.19
2019-02-09T00:21:26.302Z,8.19
2019-02-09T00:22:26.472Z,8.19
2019-02-09T00:23:26.643Z,8.16
2019-02-09T00:24:26.813Z,8.24
2019-02-09T00:25:26.987Z,8.20
2019-02-09T00:26:27.165Z,8.27
2019-02-09T00:27:27.322Z,8.16
2019-02-09T00:28:27.503Z,8.20
2019-02-09T00:29:27.671Z,8.26
2019-02-09T00:30:27.871Z,8.19
2019-02-09T00:31:28.026Z,8.12
2019-02-09T00:32:28.203Z,8.08
2019-02-09T00:33:28.369Z,8.13
2019-02-09T00:34:28.541Z,8.15
2019-02-09T00:35:28.732Z,8.13
2019-02-09T00:36:28.891Z,8.06
2019-02-09T00:37:29.072Z,8.16
2019-02-09T00:38:29.235Z,8.10
2019-02-09T00:39:29.410Z,8.12
2019-02-09T00:40:29.595Z,8.19
2019-02-09T00:41:29.769Z,8.16
2019-02-09T00:42:29.926Z,8.13
2019-02-09T00:43:30.106Z,8.24
2019-02-09T00:44:30.274Z,8.10
2019-02-09T00:45:30.448Z,8.10
2019-02-09T00:46:30.625Z,8.16
2019-02-09T00:47:30.789Z,8.20
2019-02-09T00:48:30.953Z,8.15
2019-02-09T00:49:31.127Z,8.16
2019-02-09T00:50:31.302Z,8.15
2019-02-09T00:51:31.474Z,8.08
2019-02-09T00:52:31.648Z,8.16
2019-02-09T00:53:31.818Z,8.12
2019-02-09T00:54:31.991Z,8.12
2019-02-09T00:55:32.162Z,8.16
2019-02-09T00:56:32.340Z,8.15
2019-02-09T00:57:32.498Z,8.18
2019-02-09T00:58:32.683Z,8.19
2019-02-09T00:59:32.872Z,8.27
2019-02-09T01:00:33.021Z,8.33
2019-02-09T01:01:33.191Z,8.31
2019-02-09T01:02:33.374Z,8.20
2019-02-09T01:03:33.540Z,8.24
2019-02-09T01:04:33.722Z,8.24
2019-02-09T01:05:33.885Z,8.23
2019-02-09T01:06:34.057Z,8.24
2019-02-09T01:07:34.231Z,8.19
2019-02-09T01:08:34.407Z,8.15
2019-02-09T01:09:34.581Z,8.23
2019-02-09T01:10:34.743Z,8.23
2019-02-09T01:11:34.916Z,8.30
2019-02-09T01:12:35.087Z,8.16
2019-02-09T01:13:35.261Z,8.27
2019-02-09T01:14:35.431Z,8.26
2019-02-09T01:15:35.609Z,8.28
2019-02-09T01:16:35.788Z,8.20
2019-02-09T01:17:35.960Z,8.31
2019-02-09T01:18:36.112Z,8.28
2019-02-09T01:19:36.293Z,8.24
2019-02-09T01:20:36.452Z,8.31
2019-02-09T01:21:36.623Z,8.31
2019-02-09T01:22:36.795Z,8.27
2019-02-09T01:23:36.965Z,8.28
2019-02-09T01:24:37.133Z,8.33
2019-02-09T01:25:37.305Z,8.28
2019-02-09T01:26:37.490Z,8.27
2019-02-09T01:27:37.653Z,8.33
2019-02-09T01:28:37.826Z,8.24
2019-02-09T01:29:38.028Z,8.24
2019-02-09T01:30:38.202Z,8.34
2019-02-09T01:31:38.380Z,8.26
2019-02-09T01:32:38.560Z,8.30
2019-02-09T01:33:38.705Z,8.24
2019-02-09T01:34:38.876Z,8.31
2019-02-09T01:35:39.063Z,8.33
2019-02-09T01:36:39.224Z,8.26
2019-02-09T01:37:39.402Z,8.28
2019-02-09T01:38:39.566Z,8.31
2019-02-09T01:39:39.733Z,8.36
2019-02-09T01:40:39.902Z,8.33
2019-02-09T01:41:40.078Z,8.28
2019-02-09T01:42:40.241Z,8.33
2019-02-09T01:43:40.413Z,8.31
2019-02-09T01:44:40.581Z,8.33
2019-02-09T01:45:40.759Z,8.27
2019-02-09T01:46:40.928Z,8.38
2019-02-09T01:47:41.099Z,8.31
2019-02-09T01:48:41.270Z,8.28
2019-02-09T01:49:41.439Z,8.27
2019-02-09T01:50:41.615Z,8.33
2019-02-09T01:51:41.787Z,8.24
2019-02-09T01:52:41.978Z,8.33
2019-02-09T01:53:42.137Z,8.30
2019-02-09T01:54:42.308Z,8.31
2019-02-09T01:55:42.484Z,8.28
2019-02-09T01:56:42.648Z,8.37
2019-02-09T01:57:42.817Z,8.41
2019-02-09T01:58:42.996Z,8.34
2019-02-09T01:59:43.173Z,8.28
2019-02-09T02:00:43.340Z,8.27
2019-02-09T02:01:43.512Z,8.37
2019-02-09T02:02:43.683Z,8.30
2019-02-09T02:03:43.857Z,8.30
2019-02-09T02:04:44.021Z,8.27
2019-02-09T02:05:44.194Z,8.23
2019-02-09T02:06:44.370Z,8.26
2019-02-09T02:07:44.543Z,8.18
2019-02-09T02:08:44.711Z,8.18
2019-02-09T02:09:44.884Z,8.18
2019-02-09T02:10:45.057Z,8.06
2019-02-09T02:11:45.240Z,8.06
2019-02-09T02:12:45.415Z,8.10
2019-02-09T02:13:45.573Z,8.06
2019-02-09T02:14:45.750Z,8.05
2019-02-09T02:15:45.909Z,8.08
2019-02-09T02:16:46.074Z,7.98
2019-02-09T02:17:46.247Z,7.97
2019-02-09T02:18:46.421Z,8.08
2019-02-09T02:19:46.598Z,8.01
2019-02-09T02:20:46.771Z,7.91
2019-02-09T02:21:46.940Z,7.90
2019-02-09T02:22:47.117Z,7.91
2019-02-09T02:23:47.280Z,7.76
2019-02-09T02:24:47.457Z,7.80
2019-02-09T02:25:47.634Z,7.82
2019-02-09T02:26:47.804Z,7.70
2019-02-09T02:27:47.971Z,7.85
2019-02-09T02:28:48.138Z,7.75
2019-02-09T02:29:48.315Z,7.76
2019-02-09T02:30:48.488Z,7.75
2019-02-09T02:31:48.661Z,7.70
2019-02-09T02:32:48.843Z,7.72
2019-02-09T02:33:49.009Z,7.69
2019-02-09T02:34:49.185Z,7.73
2019-02-09T02:35:49.354Z,7.73
2019-02-09T02:36:49.524Z,7.77
2019-02-09T02:37:49.702Z,7.76
2019-02-09T02:38:49.871Z,7.72
2019-02-09T02:39:50.043Z,7.66
2019-02-09T02:40:50.229Z,7.63
2019-02-09T02:41:50.386Z,7.67
2019-02-09T02:42:50.581Z,7.60
2019-02-09T02:43:50.743Z,7.66
2019-02-09T02:44:50.923Z,7.75
2019-02-09T02:45:51.090Z,7.61
2019-02-09T02:46:51.262Z,7.60
2019-02-09T02:47:51.437Z,7.63
2019-02-09T02:48:51.605Z,7.66
2019-02-09T02:49:51.775Z,7.63
2019-02-09T02:50:51.951Z,7.61
2019-02-09T02:51:52.121Z,7.57
2019-02-09T02:52:52.309Z,7.56
2019-02-09T02:53:52.466Z,7.50
2019-02-09T02:54:52.641Z,7.47
2019-02-09T02:55:52.815Z,7.38
2019-02-09T02:56:52.984Z,7.40
2019-02-09T02:57:53.159Z,7.42
2019-02-09T02:58:53.324Z,7.56
2019-02-09T02:59:53.498Z,7.40
2019-02-09T03:00:53.681Z,7.43
2019-02-09T03:01:53.842Z,7.48
2019-02-09T03:02:54.007Z,7.50
2019-02-09T03:03:54.187Z,7.53
2019-02-09T03:04:54.358Z,7.40
2019-02-09T03:05:54.529Z,7.45
2019-02-09T03:06:54.699Z,7.45
2019-02-09T03:07:54.869Z,7.43
2019-02-09T03:08:55.043Z,7.42
2019-02-09T03:09:55.213Z,7.39
2019-02-09T03:10:55.387Z,7.38
2019-02-09T03:11:55.559Z,7.36
2019-02-09T03:12:55.729Z,7.28
2019-02-09T03:13:55.906Z,7.32
2019-02-09T03:14:56.080Z,7.28
2019-02-09T03:15:56.248Z,7.28
2019-02-09T03:16:56.432Z,7.28
2019-02-09T03:17:56.591Z,7.29
2019-02-09T03:18:56.766Z,7.35
2019-02-09T03:19:56.939Z,7.36
2019-02-09T03:20:57.115Z,7.31
2019-02-09T03:21:57.281Z,7.43
2019-02-09T03:22:57.454Z,7.38
2019-02-09T03:23:57.620Z,7.42
2019-02-09T03:24:57.807Z,7.36
2019-02-09T03:25:57.960Z,7.33
2019-02-09T03:26:58.147Z,7.28
2019-02-09T03:27:58.308Z,7.36
2019-02-09T03:28:58.471Z,7.25
2019-02-09T03:29:58.640Z,7.29
2019-02-09T03:30:58.828Z,7.28
2019-02-09T03:31:59.052Z,7.31
2019-02-09T03:32:59.180Z,7.35
2019-02-09T03:33:59.344Z,7.31
2019-02-09T03:34:59.515Z,7.38
2019-02-09T03:35:59.692Z,7.38
2019-02-09T03:36:59.875Z,7.42
2019-02-09T03:38:00.027Z,7.47
2019-02-09T03:39:00.196Z,7.45
2019-02-09T03:40:00.527Z,7.51
2019-02-09T03:41:00.543Z,7.53
2019-02-09T03:42:00.713Z,7.45
2019-02-09T03:43:00.882Z,7.47
2019-02-09T03:44:01.051Z,7.47
2019-02-09T03:45:01.231Z,7.47
2019-02-09T03:46:01.401Z,7.54
2019-02-09T03:47:01.569Z,7.61
2019-02-09T03:48:01.738Z,7.57
2019-02-09T03:49:01.912Z,7.53
2019-02-09T03:50:02.084Z,7.54
2019-02-09T03:51:02.266Z,7.58
2019-02-09T03:52:02.429Z,7.51
2019-02-09T03:53:02.626Z,7.48
2019-02-09T03:54:02.779Z,7.54
2019-02-09T03:55:02.943Z,7.47
2019-02-09T03:56:03.117Z,7.53
2019-02-09T03:57:03.298Z,7.50
2019-02-09T03:58:03.468Z,7.60
2019-02-09T03:59:03.642Z,7.57
2019-02-09T04:00:03.808Z,7.60
2019-02-09T04:01:03.991Z,7.60
2019-02-09T04:02:04.153Z,7.50
2019-02-09T04:03:04.318Z,7.54
2019-02-09T04:04:04.496Z,7.60
2019-02-09T04:05:04.665Z,7.58
2019-02-09T04:06:04.835Z,7.60
2019-02-09T04:07:05.006Z,7.69
2019-02-09T04:08:05.181Z,7.69
2019-02-09T04:09:05.352Z,7.66
2019-02-09T04:10:05.527Z,7.61
2019-02-09T04:11:05.700Z,7.57
2019-02-09T04:12:05.866Z,7.58
2019-02-09T04:13:06.040Z,7.50
2019-02-09T04:14:06.212Z,7.60
2019-02-09T04:15:06.384Z,7.58
2019-02-09T04:16:06.559Z,7.51
2019-02-09T04:17:06.734Z,7.60
2019-02-09T04:18:06.903Z,7.51
2019-02-09T04:19:07.085Z,7.61
2019-02-09T04:20:07.249Z,7.57
2019-02-09T04:21:07.417Z,7.53
2019-02-09T04:22:07.594Z,7.57
2019-02-09T04:23:07.773Z,7.54
2019-02-09T04:24:07.941Z,7.63
2019-02-09T04:25:08.110Z,7.63
2019-02-09T04:26:08.282Z,7.61
2019-02-09T04:27:08.458Z,7.60
2019-02-09T04:28:08.625Z,7.61
2019-02-09T04:29:08.804Z,7.51
2019-02-09T04:30:10.556Z,7.60
2019-02-09T04:31:09.147Z,7.63
2019-02-09T04:32:09.317Z,7.70
2019-02-09T04:33:09.504Z,7.67
2019-02-09T04:34:09.664Z,7.77
2019-02-09T04:35:09.839Z,7.75
2019-02-09T04:36:10.013Z,7.76
2019-02-09T04:37:10.193Z,7.61
2019-02-09T04:38:10.408Z,7.67
2019-02-09T04:39:10.533Z,7.69
2019-02-09T04:40:10.707Z,7.58
2019-02-09T04:41:10.875Z,7.60
2019-02-09T04:42:11.046Z,7.47
2019-02-09T04:43:11.223Z,7.56
2019-02-09T04:44:11.393Z,7.66
2019-02-09T04:45:11.576Z,7.57
2019-02-09T04:46:11.725Z,7.60
2019-02-09T04:47:11.901Z,7.67
2019-02-09T04:48:12.075Z,7.67
2019-02-09T04:49:12.242Z,7.69
2019-02-09T04:50:12.421Z,7.73
2019-02-09T04:51:12.588Z,7.70
2019-02-09T04:52:12.756Z,7.69
2019-02-09T04:53:12.945Z,7.77
2019-02-09T04:54:13.099Z,7.79
2019-02-09T04:55:13.281Z,7.80
2019-02-09T04:56:13.444Z,7.80
2019-02-09T04:57:13.617Z,7.80
2019-02-09T04:58:13.790Z,7.76
2019-02-09T04:59:13.961Z,7.83
2019-02-09T05:00:14.134Z,7.80
2019-02-09T05:01:14.417Z,7.80
2019-02-09T05:02:14.465Z,7.80
2019-02-09T05:03:14.637Z,7.76
2019-02-09T05:04:14.803Z,7.79
2019-02-09T05:05:14.980Z,7.69
2019-02-09T05:06:15.150Z,7.67
2019-02-09T05:07:15.321Z,7.77
2019-02-09T05:08:15.491Z,7.72
2019-02-09T05:09:15.667Z,7.72
2019-02-09T05:10:15.836Z,7.70
2019-02-09T05:11:16.009Z,7.72
2019-02-09T05:12:16.184Z,7.77
2019-02-09T05:13:16.363Z,7.72
2019-02-09T05:14:16.518Z,7.72
2019-02-09T05:15:16.697Z,7.77
2019-02-09T05:16:16.861Z,7.72
2019-02-09T05:17:17.044Z,7.70
2019-02-09T05:18:17.216Z,7.82
2019-02-09T05:19:17.396Z,7.66
2019-02-09T05:20:17.560Z,7.73
2019-02-09T05:21:17.734Z,7.82
2019-02-09T05:22:17.905Z,7.83
2019-02-09T05:23:18.081Z,7.79
2019-02-09T05:24:18.250Z,7.88
2019-02-09T05:25:18.431Z,7.85
2019-02-09T05:26:18.596Z,7.91
2019-02-09T05:27:18.777Z,7.97
2019-02-09T05:28:18.938Z,7.90
2019-02-09T05:29:19.132Z,7.94
2019-02-09T05:30:19.276Z,7.91
2019-02-09T05:31:23.093Z,7.93
2019-02-09T05:32:19.633Z,7.94
2019-02-09T05:33:19.801Z,7.95
2019-02-09T05:34:19.973Z,7.90
2019-02-09T05:35:20.131Z,7.76
2019-02-09T05:36:20.309Z,7.76
2019-02-09T05:37:20.537Z,7.76
2019-02-09T05:38:20.698Z,7.90
2019-02-09T05:39:20.805Z,7.87
2019-02-09T05:40:20.969Z,7.80
2019-02-09T05:41:21.157Z,7.77
2019-02-09T05:42:21.319Z,7.75
2019-02-09T05:43:21.496Z,7.79
2019-02-09T05:44:21.659Z,7.83
2019-02-09T05:45:21.857Z,7.73
2019-02-09T05:46:22.006Z,7.63
2019-02-09T05:47:22.191Z,7.76
2019-02-09T05:48:22.351Z,7.70
2019-02-09T05:49:22.527Z,7.73
2019-02-09T05:50:22.694Z,7.73
2019-02-09T05:51:22.865Z,7.82
2019-02-09T05:52:23.034Z,7.75
2019-02-09T05:53:23.220Z,7.69
2019-02-09T05:54:23.387Z,7.79
2019-02-09T05:55:23.573Z,7.75
2019-02-09T05:56:23.732Z,7.70
2019-02-09T05:57:23.905Z,7.67
2019-02-09T05:58:24.082Z,7.72
2019-02-09T05:59:24.265Z,7.76
2019-02-09T06:00:24.419Z,7.73
2019-02-09T06:01:31.872Z,7.69
2019-02-09T06:02:24.776Z,7.70
2019-02-09T06:03:24.955Z,7.75
2019-02-09T06:04:25.119Z,7.72
2019-02-09T06:05:25.288Z,7.69
2019-02-09T06:06:25.464Z,7.75
2019-02-09T06:07:25.630Z,7.73
2019-02-09T06:08:25.820Z,7.76
2019-02-09T06:09:25.991Z,7.69
2019-02-09T06:10:26.168Z,7.67
2019-02-09T06:11:26.340Z,7.70
2019-02-09T06:12:26.503Z,7.76
2019-02-09T06:13:26.675Z,7.73
2019-02-09T06:14:26.847Z,7.76
2019-02-09T06:15:27.020Z,7.73
2019-02-09T06:16:27.196Z,7.77
2019-02-09T06:17:27.372Z,7.67
2019-02-09T06:18:27.544Z,7.70
2019-02-09T06:19:27.709Z,7.66
2019-02-09T06:20:27.880Z,7.70
2019-02-09T06:21:28.060Z,7.73
2019-02-09T06:22:28.227Z,7.73
2019-02-09T06:23:28.398Z,7.72
2019-02-09T06:24:28.578Z,7.66
2019-02-09T06:25:28.751Z,7.66
2019-02-09T06:26:28.921Z,7.70
2019-02-09T06:27:29.099Z,7.77
2019-02-09T06:28:29.269Z,7.76
2019-02-09T06:29:29.441Z,7.72
2019-02-09T06:30:29.614Z,7.66
2019-02-09T06:31:29.784Z,7.73
2019-02-09T06:32:29.963Z,7.77
2019-02-09T06:33:30.132Z,7.79
2019-02-09T06:34:30.327Z,7.63
2019-02-09T06:35:30.475Z,7.72
2019-02-09T06:36:30.645Z,7.70
2019-02-09T06:37:30.820Z,7.70
2019-02-09T06:38:30.988Z,7.63
2019-02-09T06:39:31.161Z,7.76
2019-02-09T06:40:31.342Z,7.76
2019-02-09T06:41:31.512Z,7.66
2019-02-09T06:42:31.677Z,7.73
2019-02-09T06:43:31.851Z,7.70
2019-02-09T06:44:32.026Z,7.70
2019-02-09T06:45:32.193Z,7.73
2019-02-09T06:46:32.363Z,7.69
2019-02-09T06:47:32.535Z,7.79
2019-02-09T06:48:32.708Z,7.69
2019-02-09T06:49:32.882Z,7.76
2019-02-09T06:50:33.053Z,7.79
2019-02-09T06:51:33.226Z,7.73
2019-02-09T06:52:33.406Z,7.73
2019-02-09T06:53:33.569Z,7.73
2019-02-09T06:54:33.741Z,7.75
2019-02-09T06:55:33.905Z,7.70
2019-02-09T06:56:34.077Z,7.76
2019-02-09T06:57:34.247Z,7.67
2019-02-09T06:58:34.421Z,7.72
2019-02-09T06:59:34.607Z,7.69
2019-02-09T07:00:34.764Z,7.61
2019-02-09T07:01:34.941Z,7.63
2019-02-09T07:02:35.113Z,7.67
2019-02-09T07:03:35.275Z,7.69
2019-02-09T07:04:35.449Z,7.67
2019-02-09T07:05:35.614Z,7.70
2019-02-09T07:06:35.795Z,7.72
2019-02-09T07:07:35.961Z,7.61
2019-02-09T07:08:36.129Z,7.67
2019-02-09T07:09:36.301Z,7.73
2019-02-09T07:10:36.474Z,7.72
2019-02-09T07:11:36.646Z,7.70
2019-02-09T07:12:36.826Z,7.73
2019-02-09T07:13:36.985Z,7.76
2019-02-09T07:14:37.159Z,7.72
2019-02-09T07:15:37.334Z,7.76
2019-02-09T07:16:37.506Z,7.73
2019-02-09T07:17:37.679Z,7.83
2019-02-09T07:18:37.846Z,7.82
2019-02-09T07:19:38.025Z,7.91
2019-02-09T07:20:38.194Z,7.90
2019-02-09T07:21:38.363Z,7.91
2019-02-09T07:22:38.549Z,7.80
2019-02-09T07:23:38.730Z,7.90
2019-02-09T07:24:38.890Z,8.01
2019-02-09T07:25:39.062Z,7.98
2019-02-09T07:26:39.229Z,7.93
2019-02-09T07:28:39.565Z,7.93
2019-02-09T07:29:39.736Z,7.97
2019-02-09T07:30:39.911Z,7.98
2019-02-09T07:31:40.147Z,7.94
2019-02-09T07:32:40.251Z,8.00
2019-02-09T07:33:40.431Z,7.97
2019-02-09T07:34:40.605Z,7.98
2019-02-09T07:35:40.777Z,8.09
2019-02-09T07:36:40.953Z,8.15
2019-02-09T07:37:41.127Z,8.03
2019-02-09T07:38:41.314Z,8.09
2019-02-09T07:39:41.469Z,8.12
2019-02-09T07:40:41.644Z,8.13
2019-02-09T07:41:41.825Z,8.10
2019-02-09T07:42:41.987Z,8.05
2019-02-09T07:43:42.158Z,8.24
2019-02-09T07:44:42.346Z,8.37
2019-02-09T07:45:42.517Z,8.36
2019-02-09T07:46:42.697Z,8.28
2019-02-09T07:47:42.869Z,8.42
2019-02-09T07:48:43.037Z,8.45
2019-02-09T07:49:43.203Z,8.51
2019-02-09T07:50:43.377Z,8.56
2019-02-09T07:51:43.560Z,8.56
2019-02-09T07:52:43.730Z,8.60
2019-02-09T07:53:43.897Z,8.63
2019-02-09T07:54:44.098Z,8.63
2019-02-09T07:55:44.248Z,8.61
2019-02-09T07:56:44.418Z,8.63
2019-02-09T07:57:44.591Z,8.64
2019-02-09T07:58:44.860Z,8.58
2019-02-09T07:59:45.000Z,8.56
2019-02-09T08:00:45.162Z,8.55
2019-02-09T08:01:45.331Z,8.66
2019-02-09T08:02:45.488Z,8.61
2019-02-09T08:03:45.654Z,8.64
2019-02-09T08:04:45.860Z,8.64
2019-02-09T08:05:46.062Z,8.70
2019-02-09T08:06:46.234Z,8.66
2019-02-09T08:07:46.390Z,8.74
2019-02-09T08:08:46.564Z,8.71
2019-02-09T08:09:46.737Z,8.70
2019-02-09T08:10:46.907Z,8.69
2019-02-09T08:11:47.077Z,8.71
2019-02-09T08:12:47.896Z,8.67
2019-02-09T08:13:47.896Z,8.58
2019-02-09T08:14:47.577Z,8.67
2019-02-09T08:15:47.752Z,8.60
2019-02-09T08:16:47.945Z,8.58
2019-02-09T08:17:48.103Z,8.58
2019-02-09T08:18:48.280Z,8.58
2019-02-09T08:19:48.445Z,8.53
2019-02-09T08:20:48.613Z,8.56
2019-02-09T08:21:48.792Z,8.70
2019-02-09T08:22:48.954Z,8.69
2019-02-09T08:23:49.127Z,8.74
2019-02-09T08:24:49.309Z,8.89
2019-02-09T08:25:49.468Z,8.78
2019-02-09T08:26:49.634Z,8.91
2019-02-09T08:27:49.817Z,8.89
2019-02-09T08:28:49.997Z,8.87
2019-02-09T08:29:50.164Z,8.78
2019-02-09T08:30:50.334Z,8.81
2019-02-09T08:31:50.512Z,8.88
2019-02-09T08:32:50.687Z,8.95
2019-02-09T08:33:50.865Z,8.95
2019-02-09T08:34:51.027Z,9.11
2019-02-09T08:35:51.263Z,9.06
2019-02-09T08:36:51.377Z,9.08
2019-02-09T08:37:51.560Z,8.95
2019-02-09T08:38:51.724Z,9.11
2019-02-09T08:39:51.906Z,9.10
2019-02-09T08:40:52.072Z,9.06
2019-02-09T08:41:52.258Z,8.92
2019-02-09T08:42:52.409Z,9.00
2019-02-09T08:43:52.585Z,9.02
2019-02-09T08:44:52.756Z,9.02
2019-02-09T08:45:52.939Z,8.99
2019-02-09T08:46:53.096Z,9.04
2019-02-09T08:47:53.269Z,9.04
2019-02-09T08:48:53.438Z,9.18
2019-02-09T08:49:53.613Z,9.08
2019-02-09T08:50:53.802Z,9.04
2019-02-09T08:51:53.966Z,9.14
2019-02-09T08:52:54.136Z,9.10
2019-02-09T08:53:54.330Z,9.16
2019-02-09T08:54:54.503Z,9.26
2019-02-09T08:55:54.654Z,9.31
2019-02-09T08:56:54.815Z,9.44
2019-02-09T08:57:55.001Z,9.29
2019-02-09T08:58:55.158Z,9.44
2019-02-09T08:59:55.348Z,9.51
2019-02-09T09:00:55.534Z,9.47
2019-02-09T09:01:55.701Z,9.34
2019-02-09T09:02:55.866Z,9.41
2019-02-09T09:03:56.034Z,9.28
2019-02-09T09:04:56.204Z,9.19
2019-02-09T09:05:56.381Z,9.26
2019-02-09T09:06:56.566Z,9.26
2019-02-09T09:07:56.721Z,9.36
2019-02-09T09:08:56.890Z,9.28
2019-02-09T09:09:57.057Z,9.32
2019-02-09T09:10:57.231Z,9.44
2019-02-09T09:11:57.413Z,9.59
2019-02-09T09:12:57.587Z,9.64
2019-02-09T09:13:57.755Z,9.61
2019-02-09T09:14:57.933Z,9.47
2019-02-09T09:15:58.095Z,9.56
2019-02-09T09:16:58.264Z,9.44
2019-02-09T09:17:58.439Z,9.55
2019-02-09T09:18:58.621Z,9.62
2019-02-09T09:19:58.795Z,9.48
2019-02-09T09:20:58.965Z,9.55
2019-02-09T09:21:59.139Z,9.56
2019-02-09T09:22:59.312Z,9.77
2019-02-09T09:23:59.508Z,9.91
2019-02-09T09:24:59.682Z,9.79
2019-02-09T09:25:59.876Z,9.79
2019-02-09T09:27:00.032Z,9.89
2019-02-09T09:28:00.205Z,10.41
2019-02-09T09:29:00.369Z,10.38
2019-02-09T09:30:00.567Z,10.33
2019-02-09T09:31:00.711Z,10.31
2019-02-09T09:32:00.898Z,10.28
2019-02-09T09:33:01.068Z,10.38
2019-02-09T09:34:01.296Z,10.15
2019-02-09T09:35:01.412Z,10.13
2019-02-09T09:36:01.591Z,10.09
2019-02-09T09:37:01.773Z,9.94
2019-02-09T09:38:02.001Z,10.25
2019-02-09T09:39:02.114Z,10.01
2019-02-09T09:40:02.285Z,10.01
2019-02-09T09:41:02.534Z,10.09
2019-02-09T09:42:02.643Z,10.26
2019-02-09T09:43:02.811Z,10.46
2019-02-09T09:44:03.008Z,10.44
2019-02-09T09:45:03.166Z,11.04
2019-02-09T09:46:03.344Z,11.17
2019-02-09T09:47:03.541Z,11.22
2019-02-09T09:48:03.779Z,11.17
2019-02-09T09:49:03.849Z,10.96
2019-02-09T09:50:04.015Z,10.67
2019-02-09T09:51:04.189Z,10.53
2019-02-09T09:52:04.343Z,10.49
2019-02-09T09:53:04.529Z,10.49
2019-02-09T09:54:04.699Z,10.42
2019-02-09T09:55:04.872Z,10.31
2019-02-09T09:56:05.052Z,10.38
2019-02-09T09:57:05.252Z,10.33
2019-02-09T09:58:05.398Z,10.25
2019-02-09T09:59:05.587Z,10.31
2019-02-09T10:00:05.758Z,10.23
2019-02-09T10:01:05.929Z,9.99
2019-02-09T10:02:06.144Z,10.02
2019-02-09T10:03:06.275Z,10.22
2019-02-09T10:04:06.449Z,10.22
2019-02-09T10:05:06.614Z,10.20
2019-02-09T10:06:06.785Z,10.13
2019-02-09T10:07:06.970Z,10.15
2019-02-09T10:08:07.154Z,10.10
2019-02-09T10:09:07.322Z,10.09
2019-02-09T10:10:07.492Z,10.28
2019-02-09T10:11:07.669Z,10.46
2019-02-09T10:12:07.878Z,10.41
2019-02-09T10:13:08.007Z,10.46
2019-02-09T10:14:09.117Z,10.37
2019-02-09T10:15:08.358Z,10.33
2019-02-09T10:16:08.529Z,10.17
2019-02-09T10:17:08.732Z,10.20
2019-02-09T10:18:08.895Z,10.20
2019-02-09T10:19:09.063Z,10.19
2019-02-09T10:20:09.237Z,10.34
2019-02-09T10:21:09.413Z,10.35
2019-02-09T10:22:09.588Z,10.37
2019-02-09T10:23:09.761Z,10.26
2019-02-09T10:24:09.936Z,10.26
2019-02-09T10:25:10.109Z,10.20
2019-02-09T10:26:10.289Z,10.25
2019-02-09T10:27:10.463Z,10.09
2019-02-09T10:28:10.640Z,10.12
2019-02-09T10:29:10.846Z,10.25
2019-02-09T10:30:11.022Z,10.57
2019-02-09T10:31:11.196Z,10.61
2019-02-09T10:32:11.384Z,10.57
2019-02-09T10:33:11.536Z,10.54
2019-02-09T10:34:11.743Z,10.68
2019-02-09T10:35:11.916Z,10.51
2019-02-09T10:36:12.085Z,10.51
2019-02-09T10:37:12.258Z,10.41
2019-02-09T10:38:12.437Z,10.35
2019-02-09T10:39:12.620Z,10.38
2019-02-09T10:40:12.810Z,10.37
2019-02-09T10:41:12.983Z,10.34
2019-02-09T10:42:13.147Z,10.30
2019-02-09T10:43:13.314Z,10.22
2019-02-09T10:44:13.484Z,10.38
2019-02-09T10:45:13.661Z,10.49
2019-02-09T10:46:13.833Z,10.53
2019-02-09T10:47:14.010Z,10.56
2019-02-09T10:48:14.198Z,10.61
2019-02-09T10:49:14.369Z,11.54
2019-02-09T10:50:14.541Z,12.27
2019-02-09T10:51:14.723Z,12.45
2019-02-09T10:52:14.894Z,12.53
2019-02-09T10:53:15.063Z,12.22
2019-02-09T10:54:15.234Z,12.64
2019-02-09T10:55:15.412Z,13.04
2019-02-09T10:56:15.603Z,12.68
2019-02-09T10:57:15.764Z,12.67
2019-02-09T10:58:15.936Z,12.61
2019-02-09T10:59:16.113Z,12.80
2019-02-09T11:00:16.285Z,12.65
2019-02-09T11:01:16.458Z,12.17
2019-02-09T11:02:16.634Z,11.77
2019-02-09T11:03:16.822Z,11.70
2019-02-09T11:04:16.990Z,11.37
2019-02-09T11:05:17.935Z,11.62
2019-02-09T11:06:17.346Z,11.63
2019-02-09T11:07:17.531Z,11.40
2019-02-09T11:08:17.702Z,11.48
2019-02-09T11:09:17.879Z,11.47
2019-02-09T11:10:18.058Z,12.04
2019-02-09T11:11:18.231Z,12.03
2019-02-09T11:12:18.412Z,12.60
2019-02-09T11:13:18.588Z,13.22
2019-02-09T11:14:18.766Z,13.44
2019-02-09T11:15:18.946Z,13.83
2019-02-09T11:16:19.122Z,13.63
2019-02-09T11:17:19.312Z,13.46
2019-02-09T11:18:19.476Z,13.46
2019-02-09T11:19:19.665Z,13.28
2019-02-09T11:20:19.831Z,13.00
2019-02-09T11:21:20.011Z,12.46
2019-02-09T11:22:20.187Z,12.22
2019-02-09T11:23:20.369Z,12.50
2019-02-09T11:24:20.549Z,12.64
2019-02-09T11:25:20.719Z,12.95
2019-02-09T11:26:20.900Z,12.72
2019-02-09T11:27:21.084Z,12.90
2019-02-09T11:28:21.275Z,12.72
2019-02-09T11:29:21.455Z,12.24
2019-02-09T11:30:21.658Z,12.40
2019-02-09T11:31:21.799Z,11.86
2019-02-09T11:32:21.973Z,12.24
2019-02-09T11:33:22.153Z,11.94
2019-02-09T11:34:22.325Z,11.43
2019-02-09T11:35:22.504Z,10.99
2019-02-09T11:36:22.680Z,10.93
2019-02-09T11:37:22.854Z,10.74
2019-02-09T11:38:23.033Z,10.79
2019-02-09T11:39:23.213Z,10.74
2019-02-09T11:40:23.400Z,10.79
2019-02-09T11:41:23.566Z,10.92
2019-02-09T11:42:23.902Z,10.89
2019-02-09T11:43:23.974Z,10.93
2019-02-09T11:44:24.153Z,11.52
2019-02-09T11:45:24.333Z,12.37
2019-02-09T11:46:25.664Z,13.33
2019-02-09T11:47:24.681Z,13.12
2019-02-09T11:48:24.859Z,13.19
2019-02-09T11:49:25.037Z,13.22
2019-02-09T11:50:25.218Z,13.86
2019-02-09T11:51:25.398Z,14.29
2019-02-09T11:52:25.577Z,13.92
2019-02-09T11:53:25.773Z,14.03
2019-02-09T11:54:25.924Z,14.37
2019-02-09T11:55:26.095Z,14.77
2019-02-09T11:56:26.282Z,13.96
2019-02-09T11:57:26.467Z,13.95
2019-02-09T11:58:26.636Z,13.19
2019-02-09T11:59:26.837Z,12.97
2019-02-09T12:00:27.007Z,12.70
2019-02-09T12:01:27.182Z,12.24
2019-02-09T12:02:27.362Z,12.04
2019-02-09T12:03:27.544Z,12.36
2019-02-09T12:04:27.731Z,12.24
2019-02-09T12:05:27.909Z,12.09
2019-02-09T12:06:28.087Z,12.20
2019-02-09T12:07:28.282Z,12.17
2019-02-09T12:08:28.459Z,12.45
2019-02-09T12:09:28.637Z,12.57
2019-02-09T12:10:28.819Z,12.42
2019-02-09T12:11:29.013Z,12.27
2019-02-09T12:12:29.186Z,12.31
2019-02-09T12:13:29.363Z,12.07
2019-02-09T12:14:29.540Z,12.07
2019-02-09T12:15:29.715Z,12.07
2019-02-09T12:16:29.902Z,12.17
2019-02-09T12:17:30.077Z,11.97
2019-02-09T12:18:30.255Z,11.91
2019-02-09T12:19:30.443Z,11.80
2019-02-09T12:20:30.599Z,11.65
2019-02-09T12:21:30.767Z,11.70
2019-02-09T12:22:30.942Z,11.84
2019-02-09T12:23:31.119Z,11.45
2019-02-09T12:24:31.299Z,11.68
2019-02-09T12:25:31.478Z,11.68
2019-02-09T12:26:31.651Z,11.57
2019-02-09T12:27:31.829Z,11.36
2019-02-09T12:28:32.010Z,11.25
2019-02-09T12:29:32.182Z,11.17
2019-02-09T12:30:32.375Z,11.22
2019-02-09T12:31:32.552Z,11.29
2019-02-09T12:32:32.729Z,11.29
2019-02-09T12:33:32.900Z,11.26
2019-02-09T12:34:33.076Z,11.50
2019-02-09T12:35:33.255Z,11.68
2019-02-09T12:36:33.440Z,11.73
2019-02-09T12:37:33.620Z,11.69
2019-02-09T12:38:33.811Z,11.54
2019-02-09T12:39:33.965Z,11.44
2019-02-09T12:40:34.133Z,11.51
2019-02-09T12:41:34.307Z,11.55
2019-02-09T12:42:34.485Z,11.44
2019-02-09T12:43:34.657Z,11.45
2019-02-09T12:44:34.835Z,11.45
2019-02-09T12:45:35.009Z,11.30
2019-02-09T12:46:35.185Z,11.29
2019-02-09T12:47:35.361Z,11.33
2019-02-09T12:48:35.535Z,11.33
2019-02-09T12:49:35.718Z,11.26
2019-02-09T12:50:35.895Z,11.22
2019-02-09T12:51:36.075Z,11.23
2019-02-09T12:52:36.253Z,11.33
2019-02-09T12:53:36.430Z,11.30
2019-02-09T12:54:36.614Z,11.37
2019-02-09T12:55:36.790Z,11.40
2019-02-09T12:56:36.956Z,11.36
2019-02-09T12:57:37.128Z,11.32
2019-02-09T12:58:37.315Z,11.40
2019-02-09T12:59:37.481Z,11.33
2019-02-09T13:00:37.655Z,11.22
2019-02-09T13:01:37.832Z,10.96
2019-02-09T13:02:38.013Z,10.76
2019-02-09T13:03:38.189Z,10.64
2019-02-09T13:04:38.370Z,10.61
2019-02-09T13:05:38.575Z,10.56
2019-02-09T13:06:38.721Z,10.63
2019-02-09T13:07:38.896Z,10.56
2019-02-09T13:08:39.073Z,10.53
2019-02-09T13:09:39.241Z,10.48
2019-02-09T13:10:39.417Z,10.42
2019-02-09T13:11:39.594Z,10.38
2019-02-09T13:12:39.796Z,10.31
2019-02-09T13:13:39.945Z,10.23